Time;durP1;ratioP1;P1;durP2;ratioP2;P2;SDS_P1;SDS_P2;PMS_P1;PMS_P2;Temp;Humidity;BMP_temperature;BMP_pressure;BME280_temperature;BME280_humidity;BME280_pressure;Samples;Min_cycle;Max_cycle;Signal;HPM_P1;HPM_P2
2023/05/06 00:00:43;;;;;;;;;;;;;;;11.74;92.23;101555.88;5059659;28;1223;-78
2023/05/06 00:03:09;;;;;;;;;;;;;;;11.75;92.32;101552.31;5056025;28;1019;-78
2023/05/06 00:05:34;;;;;;;;;;;;;;;11.78;91.95;101552.09;5065924;28;1001;-79
2023/05/06 00:08:00;;;;;;;;;;;;;;;11.78;92.19;101546.91;5056927;28;1294;-78
2023/05/06 00:10:25;;;;;;;;;;;;;;;11.79;91.80;101548.56;5063428;28;1443;-77
2023/05/06 00:12:50;;;;;;;;;;;;;;;11.80;92.84;101545.00;5047741;28;1894;-77
2023/05/06 00:15:15;;;;;;;;;;;;;;;11.79;92.57;101551.16;5055748;28;1282;-77
2023/05/06 00:17:41;;;;;;;;;;;;;;;11.78;92.58;101552.09;5062475;28;1143;-78
2023/05/06 00:20:08;;;;;;;;;;;;;;;11.79;92.59;101543.34;5063307;28;1012;-79
2023/05/06 00:22:33;;;;;;;;;;;;;;;11.80;92.63;101545.00;5065861;28;1262;-77
2023/05/06 00:24:58;;;;;;;;;;;;;;;11.80;92.73;101540.63;5062404;28;1326;-77
2023/05/06 00:27:24;;;;;;;;;;;;;;;11.78;92.96;101539.94;5059048;28;1310;-77
2023/05/06 00:29:50;;;;;;;;;;;;;;;11.78;92.55;101544.31;5061411;28;1433;-77
2023/05/06 00:32:15;;;;;;;;;;;;;;;11.76;92.93;101543.59;5060905;28;1914;-77
2023/05/06 00:34:40;;;;;;;;;;;;;;;11.73;92.75;101534.25;5056541;28;1207;-78
2023/05/06 00:37:05;;;;;;;;;;;;;;;11.72;92.40;101531.78;5066336;28;1105;-77
2023/05/06 00:39:31;;;;;;;;;;;;;;;11.70;93.34;101534.50;5065349;28;1056;-77
2023/05/06 00:42:01;;;;;;;;;;;;;;;11.68;93.87;101542.38;5061208;28;1279;-77
2023/05/06 00:44:26;;;;;;;;;;;;;;;11.66;93.77;101533.88;5061764;28;1215;-77
2023/05/06 00:46:51;;;;;;;;;;;;;;;11.64;92.75;101543.56;5066352;28;1168;-78
2023/05/06 00:49:16;;;;;;;;;;;;;;;11.63;94.25;101534.09;5058575;28;1282;-78
2023/05/06 00:51:42;;;;;;;;;;;;;;;11.63;93.98;101546.25;5077153;28;1894;-77
2023/05/06 00:54:08;;;;;;;;;;;;;;;11.61;93.96;101546.38;5061951;28;1569;-78
2023/05/06 00:56:33;;;;;;;;;;;;;;;11.60;94.16;101534.34;5068935;28;1291;-78
2023/05/06 00:58:58;;;;;;;;;;;;;;;11.61;94.04;101538.59;5065789;28;1230;-78
2023/05/06 01:01:23;;;;;;;;;;;;;;;11.61;93.85;101515.22;5075581;28;1470;-77
2023/05/06 01:03:50;;;;;;;;;;;;;;;11.62;94.72;101522.06;5065837;28;1393;-77
2023/05/06 01:06:19;;;;;;;;;;;;;;;11.62;94.14;101522.06;5059819;28;1691;-78
2023/05/06 01:09:06;;;;;;;;;;;;;;;11.62;94.09;101516.84;5060700;28;2436;-77
2023/05/06 01:11:31;;;;;;;;;;;;;;;11.62;93.75;101524.66;5064148;28;1148;-77
2023/05/06 01:14:00;;;;;;;;;;;;;;;11.61;93.89;101525.59;5067154;28;2070;-77
2023/05/06 01:16:28;;;;;;;;;;;;;;;11.60;94.21;101504.94;5064033;28;888;-78
2023/05/06 01:18:53;;;;;;;;;;;;;;;11.59;93.56;101511.09;5057677;28;1227;-77
2023/05/06 01:21:20;;;;;;;;;;;;;;;11.56;93.51;101506.94;5050524;28;1215;-77
2023/05/06 01:23:54;;;;;;;;;;;;;;;11.54;93.35;101501.03;5061525;28;1048;-77
2023/05/06 01:26:19;;;;;;;;;;;;;;;11.53;93.74;101507.16;5057350;28;1223;-78
2023/05/06 01:28:44;;;;;;;;;;;;;;;11.52;93.65;101504.66;5063266;28;1386;-77
2023/05/06 01:31:11;;;;;;;;;;;;;;;11.50;93.20;101507.38;5069837;28;1338;-77
2023/05/06 01:33:48;;;;;;;;;;;;;;;11.48;94.31;101509.28;5060813;28;1963;-77
2023/05/06 01:36:25;;;;;;;;;;;;;;;11.45;94.06;101501.69;5061128;28;1468;-77
2023/05/06 01:38:53;;;;;;;;;;;;;;;11.42;93.50;101500.19;5060321;28;1609;-79
2023/05/06 01:41:20;;;;;;;;;;;;;;;11.42;94.10;101514.94;5059720;28;1284;-76
2023/05/06 01:43:46;;;;;;;;;;;;;;;11.40;93.70;101511.59;5059767;28;1191;-76
2023/05/06 01:46:16;;;;;;;;;;;;;;;11.36;93.67;101505.00;5060758;28;1422;-76
2023/05/06 01:48:43;;;;;;;;;;;;;;;11.29;94.34;101509.78;5067855;28;1369;-76
2023/05/06 01:51:08;;;;;;;;;;;;;;;11.22;94.08;101515.56;5062351;28;1184;-78
2023/05/06 01:53:33;;;;;;;;;;;;;;;11.17;94.66;101516.72;5060312;28;1901;-76
2023/05/06 01:55:58;;;;;;;;;;;;;;;11.15;94.56;101516.00;5061608;28;1505;-77
2023/05/06 01:58:24;;;;;;;;;;;;;;;11.15;94.04;101518.59;5063968;28;1263;-76
2023/05/06 02:00:49;;;;;;;;;;;;;;;11.14;94.34;101522.16;5063464;28;1208;-78
2023/05/06 02:03:14;;;;;;;;;;;;;;;11.12;94.55;101521.41;5059231;28;1345;-77
2023/05/06 02:05:39;;;;;;;;;;;;;;;11.11;94.86;101521.53;5068878;28;1235;-76
2023/05/06 02:08:05;;;;;;;;;;;;;;;11.09;94.05;101524.25;5064009;28;1312;-77
2023/05/06 02:10:30;;;;;;;;;;;;;;;11.08;94.47;101527.78;5065290;28;1291;-77
2023/05/06 02:12:55;;;;;;;;;;;;;;;11.05;94.59;101522.81;5059589;28;1930;-77
2023/05/06 02:15:21;;;;;;;;;;;;;;;11.05;94.49;101527.16;5063124;28;1399;-76
2023/05/06 02:17:46;;;;;;;;;;;;;;;10.99;94.78;101533.63;5069080;28;1475;-76
2023/05/06 02:20:11;;;;;;;;;;;;;;;10.93;94.59;101533.25;5082102;28;1375;-77
2023/05/06 02:22:36;;;;;;;;;;;;;;;10.87;94.60;101534.50;5064407;28;1089;-76
2023/05/06 02:25:02;;;;;;;;;;;;;;;10.81;95.07;101535.78;5062530;28;1396;-76
2023/05/06 02:27:27;;;;;;;;;;;;;;;10.82;94.61;101536.59;5065139;28;1097;-76
2023/05/06 02:29:53;;;;;;;;;;;;;;;10.83;94.58;101538.25;5057495;28;957;-76
2023/05/06 02:32:18;;;;;;;;;;;;;;;10.82;95.14;101527.06;5055851;28;1902;-78
2023/05/06 02:34:43;;;;;;;;;;;;;;;10.81;94.43;101528.00;5074526;28;1277;-76
2023/05/06 02:37:08;;;;;;;;;;;;;;;10.79;94.85;101523.88;5060874;28;1074;-77
2023/05/06 02:39:33;;;;;;;;;;;;;;;10.76;95.01;101516.28;5053680;28;1140;-76
2023/05/06 02:41:59;;;;;;;;;;;;;;;10.70;94.96;101517.53;5060194;28;966;-76
2023/05/06 02:44:24;;;;;;;;;;;;;;;10.66;94.89;101520.47;5063106;28;1021;-78
2023/05/06 02:46:50;;;;;;;;;;;;;;;10.58;95.25;101514.06;5060880;28;1318;-76
2023/05/06 02:49:15;;;;;;;;;;;;;;;10.51;95.19;101512.84;5062766;28;1281;-76
2023/05/06 02:51:40;;;;;;;;;;;;;;;10.47;95.15;101518.34;5064093;28;1959;-77
2023/05/06 02:54:05;;;;;;;;;;;;;;;10.48;95.10;101517.41;5059045;28;1286;-76
2023/05/06 02:56:31;;;;;;;;;;;;;;;10.47;95.07;101515.75;5060944;28;1247;-76
2023/05/06 02:58:56;;;;;;;;;;;;;;;10.43;94.92;101517.72;5060512;28;1287;-76
2023/05/06 03:01:21;;;;;;;;;;;;;;;10.38;95.47;101517.25;5055094;28;1208;-76
2023/05/06 03:03:46;;;;;;;;;;;;;;;10.32;95.62;101522.81;5059126;28;1113;-78
2023/05/06 03:06:12;;;;;;;;;;;;;;;10.32;95.05;101520.22;5058928;28;1184;-76
2023/05/06 03:08:37;;;;;;;;;;;;;;;10.33;95.87;101527.09;5060243;28;1241;-76
2023/05/06 03:11:02;;;;;;;;;;;;;;;10.33;95.76;101514.97;5070189;28;1076;-77
2023/05/06 03:13:27;;;;;;;;;;;;;;;10.33;95.08;101514.97;5057531;28;1898;-76
2023/05/06 03:15:53;;;;;;;;;;;;;;;10.35;95.71;101512.25;5062470;28;1004;-77
2023/05/06 03:18:18;;;;;;;;;;;;;;;10.34;95.53;101505.41;5052204;28;1242;-76
2023/05/06 03:20:43;;;;;;;;;;;;;;;10.32;94.89;101513.31;5062259;28;1161;-76
2023/05/06 03:23:08;;;;;;;;;;;;;;;10.30;95.61;101514.34;5062981;28;1370;-78
2023/05/06 03:25:33;;;;;;;;;;;;;;;10.30;95.50;101509.16;5062726;28;1227;-79
2023/05/06 03:27:59;;;;;;;;;;;;;;;10.30;95.77;101509.16;5063527;28;1230;-77
2023/05/06 03:30:24;;;;;;;;;;;;;;;10.26;95.42;101507.69;5060965;28;1295;-76
2023/05/06 03:32:49;;;;;;;;;;;;;;;10.19;95.63;101509.03;5063383;28;1972;-77
2023/05/06 03:35:15;;;;;;;;;;;;;;;10.14;95.74;101513.69;5060241;28;1222;-76
2023/05/06 03:37:40;;;;;;;;;;;;;;;10.11;95.27;101520.75;5063130;28;1545;-75
2023/05/06 03:40:06;;;;;;;;;;;;;;;10.11;95.78;101515.56;5063367;28;1156;-76
2023/05/06 03:42:31;;;;;;;;;;;;;;;10.13;95.80;101512.88;5059342;28;1970;-77
2023/05/06 03:44:56;;;;;;;;;;;;;;;10.13;95.59;101517.22;5069361;28;1231;-76
2023/05/06 03:47:22;;;;;;;;;;;;;;;10.13;95.48;101517.22;5064797;28;1026;-76
2023/05/06 03:49:47;;;;;;;;;;;;;;;10.11;95.79;101515.56;5063764;28;1448;-76
2023/05/06 03:52:12;;;;;;;;;;;;;;;10.08;95.64;101517.53;5061557;28;1898;-76
2023/05/06 03:54:37;;;;;;;;;;;;;;;10.04;95.59;101514.34;5063055;28;1198;-76
2023/05/06 03:57:03;;;;;;;;;;;;;;;10.02;95.85;101520.53;5062705;28;1331;-76
2023/05/06 03:59:28;;;;;;;;;;;;;;;9.98;95.60;101521.72;5062376;28;1649;-76
2023/05/06 04:01:53;;;;;;;;;;;;;;;9.91;96.00;101518.69;5057480;28;1288;-76
2023/05/06 04:04:18;;;;;;;;;;;;;;;9.83;95.98;101518.38;5066992;28;1347;-78
2023/05/06 04:06:43;;;;;;;;;;;;;;;9.79;95.80;101516.91;5081483;28;1248;-76
2023/05/06 04:09:09;;;;;;;;;;;;;;;9.76;95.80;101514.56;5058126;28;1227;-76
2023/05/06 04:11:34;;;;;;;;;;;;;;;9.75;96.71;101518.06;5063967;28;1103;-76
2023/05/06 04:14:00;;;;;;;;;;;;;;;9.74;96.38;101524.16;5066583;28;1988;-76
2023/05/06 04:16:25;;;;;;;;;;;;;;;9.70;96.12;101518.38;5068133;28;1199;-76
2023/05/06 04:18:51;;;;;;;;;;;;;;;9.67;96.17;101517.75;5062332;28;1369;-76
2023/05/06 04:21:17;;;;;;;;;;;;;;;9.61;96.61;101520.75;5061707;28;1105;-76
2023/05/06 04:23:43;;;;;;;;;;;;;;;9.57;96.87;101526.09;5062948;28;1089;-76
2023/05/06 04:26:08;;;;;;;;;;;;;;;9.58;96.46;101537.34;5064389;28;1020;-76
2023/05/06 04:28:33;;;;;;;;;;;;;;;9.60;96.83;101526.84;5052399;28;1170;-75
2023/05/06 04:30:58;;;;;;;;;;;;;;;9.61;97.14;101529.34;5064462;28;1135;-76
2023/05/06 04:33:24;;;;;;;;;;;;;;;9.62;97.45;101535.34;5062612;28;1957;-78
2023/05/06 04:35:52;;;;;;;;;;;;;;;9.62;97.18;101532.75;5065194;28;1080;-76
2023/05/06 04:38:17;;;;;;;;;;;;;;;9.63;97.22;101534.41;5062161;28;1009;-76
2023/05/06 04:40:43;;;;;;;;;;;;;;;9.65;97.00;101535.16;5067523;28;1099;-76
2023/05/06 04:43:09;;;;;;;;;;;;;;;9.64;97.26;101539.50;5065808;28;1242;-77
2023/05/06 04:45:36;;;;;;;;;;;;;;;9.65;97.22;101548.94;5061087;28;1220;-79
2023/05/06 04:48:01;;;;;;;;;;;;;;;9.66;97.61;101539.41;5063870;28;1212;-76
2023/05/06 04:50:27;;;;;;;;;;;;;;;9.68;97.41;101550.47;5074081;28;1220;-76
2023/05/06 04:52:52;;;;;;;;;;;;;;;9.72;97.55;101549.34;5062755;28;1894;-77
2023/05/06 04:55:17;;;;;;;;;;;;;;;9.76;98.05;101545.63;5070258;28;1198;-76
2023/05/06 04:57:42;;;;;;;;;;;;;;;9.80;97.68;101547.06;5068043;28;1147;-76
2023/05/06 05:00:09;;;;;;;;;;;;;;;9.83;97.88;101549.47;5064901;28;1488;-76
2023/05/06 05:02:34;;;;;;;;;;;;;;;9.84;97.81;101553.72;5061548;28;1578;-76
2023/05/06 05:04:59;;;;;;;;;;;;;;;9.84;98.23;101549.34;5064568;28;1353;-77
2023/05/06 05:07:24;;;;;;;;;;;;;;;9.87;98.29;101552.69;5067944;28;1492;-77
2023/05/06 05:09:50;;;;;;;;;;;;;;;9.89;98.56;101567.19;5060267;28;1211;-76
2023/05/06 05:12:15;;;;;;;;;;;;;;;9.93;98.02;101558.28;5058284;28;1951;-76
2023/05/06 05:14:41;;;;;;;;;;;;;;;9.98;98.56;101555.41;5058514;28;1530;-77
2023/05/06 05:17:06;;;;;;;;;;;;;;;10.04;98.57;101566.19;5062709;28;1362;-76
2023/05/06 05:19:31;;;;;;;;;;;;;;;10.10;99.14;101565.75;5062536;28;1496;-76
2023/05/06 05:21:57;;;;;;;;;;;;;;;10.15;98.96;101572.38;5065400;28;1193;-77
2023/05/06 05:24:22;;;;;;;;;;;;;;;10.15;98.46;101568.03;5064084;28;1160;-78
2023/05/06 05:26:47;;;;;;;;;;;;;;;10.19;99.28;101579.03;5061159;28;1212;-76
2023/05/06 05:29:12;;;;;;;;;;;;;;;10.20;99.53;101565.94;5061088;28;1354;-77
2023/05/06 05:31:38;;;;;;;;;;;;;;;10.23;99.43;101570.09;5060196;28;1269;-76
2023/05/06 05:34:04;;;;;;;;;;;;;;;10.24;99.62;101574.38;5065573;28;1914;-77
2023/05/06 05:36:29;;;;;;;;;;;;;;;10.28;98.94;101568.06;5081534;28;1280;-76
2023/05/06 05:38:54;;;;;;;;;;;;;;;10.33;99.21;101576.38;5062779;28;1324;-76
2023/05/06 05:41:19;;;;;;;;;;;;;;;10.38;99.54;101574.28;5061675;28;1060;-76
2023/05/06 05:43:44;;;;;;;;;;;;;;;10.44;99.67;101579.03;5060758;28;1502;-76
2023/05/06 05:46:10;;;;;;;;;;;;;;;10.48;99.21;101570.09;5064494;28;1053;-77
2023/05/06 05:48:36;;;;;;;;;;;;;;;10.54;99.19;101574.03;5060418;28;1247;-78
2023/05/06 05:51:02;;;;;;;;;;;;;;;10.60;99.19;101571.84;5057801;28;1180;-77
2023/05/06 05:53:27;;;;;;;;;;;;;;;10.64;99.28;101581.06;5067435;28;1901;-76
2023/05/06 05:55:52;;;;;;;;;;;;;;;10.69;99.55;101575.56;5066409;28;1263;-77
2023/05/06 05:58:18;;;;;;;;;;;;;;;10.74;100.00;101575.25;5065806;28;1493;-76
2023/05/06 06:00:43;;;;;;;;;;;;;;;10.80;99.24;101574.81;5063910;28;1196;-76
2023/05/06 06:03:08;;;;;;;;;;;;;;;10.85;99.99;101572.72;5060478;28;1330;-76
2023/05/06 06:05:33;;;;;;;;;;;;;;;10.92;99.77;101580.91;5064744;28;1506;-76
2023/05/06 06:07:59;;;;;;;;;;;;;;;10.95;100.00;101584.09;5060848;28;1255;-77
2023/05/06 06:10:24;;;;;;;;;;;;;;;10.99;99.99;101585.53;5060528;28;1115;-77
2023/05/06 06:12:49;;;;;;;;;;;;;;;11.03;99.92;101592.19;5054917;28;1996;-76
2023/05/06 06:15:15;;;;;;;;;;;;;;;11.09;99.11;101586.56;5059347;28;1046;-77
2023/05/06 06:17:40;;;;;;;;;;;;;;;11.14;100.00;101584.47;5054771;28;1332;-76
2023/05/06 06:20:05;;;;;;;;;;;;;;;11.17;99.77;101581.63;5057988;28;2013;-76
2023/05/06 06:22:31;;;;;;;;;;;;;;;11.22;100.00;101585.66;5059822;28;1222;-78
2023/05/06 06:24:56;;;;;;;;;;;;;;;11.26;99.93;101577.56;5060099;28;1240;-76
2023/05/06 06:27:21;;;;;;;;;;;;;;;11.32;100.00;101581.47;5060981;28;1148;-78
2023/05/06 06:29:48;;;;;;;;;;;;;;;11.37;99.78;101594.97;5060734;28;1063;-77
2023/05/06 06:32:13;;;;;;;;;;;;;;;11.40;100.00;101589.53;5065324;28;1967;-78
2023/05/06 06:34:39;;;;;;;;;;;;;;;11.46;99.94;101594.25;5065572;28;1246;-76
2023/05/06 06:37:04;;;;;;;;;;;;;;;11.52;100.00;101593.81;5079165;28;1358;-76
2023/05/06 06:39:29;;;;;;;;;;;;;;;11.56;100.00;101589.25;5057979;28;1213;-77
2023/05/06 06:41:55;;;;;;;;;;;;;;;11.62;100.00;101594.81;5063107;28;1151;-76
2023/05/06 06:44:20;;;;;;;;;;;;;;;11.68;99.69;101599.53;5072973;28;1227;-77
2023/05/06 06:46:45;;;;;;;;;;;;;;;11.73;100.00;101591.41;5063375;28;1330;-76
2023/05/06 06:49:10;;;;;;;;;;;;;;;11.79;99.91;101590.97;5064340;28;1438;-76
2023/05/06 06:51:36;;;;;;;;;;;;;;;11.86;100.00;101591.34;5072209;28;1062;-77
2023/05/06 06:54:01;;;;;;;;;;;;;;;11.92;100.00;101596.91;5061866;28;1989;-76
2023/05/06 06:56:26;;;;;;;;;;;;;;;12.00;100.00;101587.75;5067457;28;989;-78
2023/05/06 06:58:51;;;;;;;;;;;;;;;12.05;100.00;101591.66;5061855;28;1132;-77
2023/05/06 07:01:16;;;;;;;;;;;;;;;12.12;100.00;101592.84;5061838;28;1069;-77
2023/05/06 07:03:42;;;;;;;;;;;;;;;12.17;100.00;101595.91;5052981;28;1076;-80
2023/05/06 07:06:07;;;;;;;;;;;;;;;12.23;100.00;101595.44;5074317;28;1316;-77
2023/05/06 07:08:32;;;;;;;;;;;;;;;12.31;100.00;101596.63;5054381;28;1360;-77
2023/05/06 07:10:57;;;;;;;;;;;;;;;12.37;100.00;101596.16;5056056;28;1250;-77
2023/05/06 07:13:23;;;;;;;;;;;;;;;12.42;100.00;101596.63;5061377;28;1963;-77
2023/05/06 07:15:48;;;;;;;;;;;;;;;12.47;100.00;101591.91;5061221;28;1316;-76
2023/05/06 07:18:14;;;;;;;;;;;;;;;12.51;99.61;101595.13;5058429;28;1154;-77
2023/05/06 07:20:39;;;;;;;;;;;;;;;12.57;99.87;101603.28;5054742;28;1101;-78
2023/05/06 07:23:05;;;;;;;;;;;;;;;12.64;99.57;101601.84;5053525;28;2213;-77
2023/05/06 07:25:31;;;;;;;;;;;;;;;12.73;99.40;101601.13;5050645;28;1573;-77
2023/05/06 07:27:56;;;;;;;;;;;;;;;12.80;99.96;101609.28;5052641;28;1381;-77
2023/05/06 07:30:21;;;;;;;;;;;;;;;12.86;99.18;101602.78;5056690;28;1078;-77
2023/05/06 07:32:47;;;;;;;;;;;;;;;12.92;99.62;101608.31;5057508;28;1959;-76
2023/05/06 07:35:12;;;;;;;;;;;;;;;12.98;99.26;101612.22;5053539;28;1252;-77
2023/05/06 07:37:37;;;;;;;;;;;;;;;13.03;99.22;101612.69;5062170;28;1203;-76
2023/05/06 07:40:03;;;;;;;;;;;;;;;13.12;99.00;101613.72;5061565;28;2335;-78
2023/05/06 07:42:28;;;;;;;;;;;;;;;13.17;98.51;101615.00;5064518;28;1464;-78
2023/05/06 07:44:53;;;;;;;;;;;;;;;13.21;98.53;101613.84;5058438;28;1182;-77
2023/05/06 07:47:25;;;;;;;;;;;;;;;13.26;98.86;101622.13;5061733;28;1166;-78
2023/05/06 07:49:50;;;;;;;;;;;;;;;13.34;98.27;101623.28;5066916;28;1218;-77
2023/05/06 07:52:15;;;;;;;;;;;;;;;13.36;98.26;101621.34;5063137;28;1890;-77
2023/05/06 07:54:40;;;;;;;;;;;;;;;13.42;98.55;101621.72;5063687;28;1068;-76
2023/05/06 07:57:05;;;;;;;;;;;;;;;13.51;98.39;101625.34;5067433;28;1087;-77
2023/05/06 07:59:31;;;;;;;;;;;;;;;13.55;98.37;101611.13;5061906;28;1068;-78
2023/05/06 08:01:56;;;;;;;;;;;;;;;13.63;98.38;101629.56;5060349;28;1080;-78
2023/05/06 08:04:21;;;;;;;;;;;;;;;13.68;98.36;101619.59;5064899;28;1289;-77
2023/05/06 08:06:46;;;;;;;;;;;;;;;13.76;98.73;101619.78;5061257;28;1047;-78
2023/05/06 08:09:11;;;;;;;;;;;;;;;13.81;98.49;101617.59;5066221;28;1186;-78
2023/05/06 08:11:37;;;;;;;;;;;;;;;13.89;98.04;101624.00;5067603;28;1097;-78
2023/05/06 08:14:02;;;;;;;;;;;;;;;13.93;98.04;101625.38;5060117;28;1913;-78
2023/05/06 08:16:28;;;;;;;;;;;;;;;13.99;97.62;101630.06;5065459;28;1160;-79
2023/05/06 08:18:53;;;;;;;;;;;;;;;14.03;97.38;101626.25;5065640;28;1113;-78
2023/05/06 08:21:18;;;;;;;;;;;;;;;14.07;97.29;101633.72;5058723;28;1113;-77
2023/05/06 08:23:43;;;;;;;;;;;;;;;14.13;97.40;101632.38;5064759;28;1155;-79
2023/05/06 08:26:08;;;;;;;;;;;;;;;14.19;97.42;101637.06;5057962;28;1283;-77
2023/05/06 08:28:34;;;;;;;;;;;;;;;14.28;97.51;101636.31;5068264;28;1070;-78
2023/05/06 08:30:59;;;;;;;;;;;;;;;14.38;97.26;101630.31;5059147;28;1131;-78
2023/05/06 08:33:25;;;;;;;;;;;;;;;14.47;97.08;101629.56;5066349;28;1953;-77
2023/05/06 08:35:50;;;;;;;;;;;;;;;14.55;96.60;101627.94;5061978;28;1218;-78
2023/05/06 08:38:15;;;;;;;;;;;;;;;14.64;97.13;101626.34;5068551;28;1147;-78
2023/05/06 08:40:42;;;;;;;;;;;;;;;14.75;97.22;101628.84;5082832;28;1180;-78
2023/05/06 08:43:10;;;;;;;;;;;;;;;14.87;96.57;101626.97;5058286;28;1024;-78
2023/05/06 08:45:36;;;;;;;;;;;;;;;14.95;96.19;101624.50;5058625;28;1294;-78
2023/05/06 08:48:01;;;;;;;;;;;;;;;15.03;95.51;101626.44;5077597;28;1384;-78
2023/05/06 08:50:26;;;;;;;;;;;;;;;15.11;95.49;101629.19;5058535;28;1342;-78
2023/05/06 08:52:51;;;;;;;;;;;;;;;15.18;95.33;101624.25;5066550;28;1910;-78
2023/05/06 08:55:18;;;;;;;;;;;;;;;15.26;95.34;101625.25;5067810;28;1493;-78
2023/05/06 08:57:44;;;;;;;;;;;;;;;15.39;94.95;101623.19;5063511;28;1223;-78
2023/05/06 09:00:09;;;;;;;;;;;;;;;15.52;95.48;101622.91;5076515;28;1327;-78
2023/05/06 09:02:36;;;;;;;;;;;;;;;15.61;94.45;101623.88;5068450;28;1259;-78
2023/05/06 09:05:01;;;;;;;;;;;;;;;15.69;94.10;101612.75;5062602;28;1561;-79
2023/05/06 09:07:26;;;;;;;;;;;;;;;15.76;93.64;101617.28;5056076;28;1553;-77
2023/05/06 09:09:52;;;;;;;;;;;;;;;15.82;93.78;101619.34;5060060;28;1213;-77
2023/05/06 09:12:17;;;;;;;;;;;;;;;15.93;93.09;101621.78;5056840;28;1898;-78
2023/05/06 09:14:42;;;;;;;;;;;;;;;16.04;93.23;101618.19;5063167;28;1295;-77
2023/05/06 09:17:22;;;;;;;;;;;;;;;16.17;92.92;101607.41;5064398;28;1305;-77
2023/05/06 09:19:48;;;;;;;;;;;;;;;16.25;92.42;101607.53;5064818;28;1446;-77
2023/05/06 09:22:13;;;;;;;;;;;;;;;16.31;91.60;101614.81;5062446;28;1068;-79
2023/05/06 09:24:38;;;;;;;;;;;;;;;16.40;91.12;101608.72;5057239;28;1217;-79
2023/05/06 09:27:03;;;;;;;;;;;;;;;16.47;90.62;101603.75;5058432;28;1162;-77
2023/05/06 09:29:28;;;;;;;;;;;;;;;16.51;90.04;101604.25;5062073;28;1520;-76
2023/05/06 09:31:54;;;;;;;;;;;;;;;16.56;90.05;101602.03;5067109;28;1477;-78
2023/05/06 09:34:20;;;;;;;;;;;;;;;16.66;89.66;101597.56;5061857;28;1894;-77
2023/05/06 09:36:45;;;;;;;;;;;;;;;16.73;88.63;101596.03;5064363;28;1187;-79
2023/05/06 09:39:11;;;;;;;;;;;;;;;16.83;88.50;101591.59;5065639;28;1351;-77
2023/05/06 09:41:36;;;;;;;;;;;;;;;16.92;88.03;101598.56;5065594;28;1493;-78
2023/05/06 09:44:02;;;;;;;;;;;;;;;17.04;87.29;101593.13;5068424;28;1180;-78
2023/05/06 09:46:27;;;;;;;;;;;;;;;17.17;87.06;101590.94;5069551;28;1219;-77
2023/05/06 09:48:54;;;;;;;;;;;;;;;17.25;86.90;101596.25;5056917;28;1410;-77
2023/05/06 09:51:19;;;;;;;;;;;;;;;17.33;86.16;101591.09;5061475;28;1252;-77
2023/05/06 09:53:45;;;;;;;;;;;;;;;17.41;85.58;101603.44;5060944;28;1902;-78
2023/05/06 09:56:11;;;;;;;;;;;;;;;17.46;84.62;101595.97;5063167;28;1339;-80
2023/05/06 09:58:37;;;;;;;;;;;;;;;17.55;83.46;101592.44;5065350;28;1234;-79
2023/05/06 10:01:05;;;;;;;;;;;;;;;17.60;79.82;101599.81;5061083;28;1462;-79
2023/05/06 10:03:30;;;;;;;;;;;;;;;17.66;82.79;101596.59;5058833;28;1336;-78
2023/05/06 10:05:58;;;;;;;;;;;;;;;17.80;81.74;101593.47;5057055;28;1229;-78
2023/05/06 10:08:23;;;;;;;;;;;;;;;17.88;82.06;101596.13;5058538;28;1251;-78
2023/05/06 10:10:49;;;;;;;;;;;;;;;18.00;81.15;101594.88;5054954;28;1252;-78
2023/05/06 10:13:15;;;;;;;;;;;;;;;17.92;80.32;101596.66;5056709;28;1901;-78
2023/05/06 10:15:41;;;;;;;;;;;;;;;17.90;79.00;101588.94;5058200;28;1302;-78
2023/05/06 10:18:07;;;;;;;;;;;;;;;17.96;80.57;101585.69;5059911;28;1284;-78
2023/05/06 10:20:35;;;;;;;;;;;;;;;17.99;80.06;101579.31;5058052;28;1255;-78
2023/05/06 10:23:21;;;;;;;;;;;;;;;18.05;78.79;101576.06;5049585;28;1140;-78
2023/05/06 10:25:46;;;;;;;;;;;;;;;18.06;78.57;101572.44;5047535;28;1163;-78
2023/05/06 10:28:12;;;;;;;;;;;;;;;18.00;78.89;101576.50;5059082;28;1219;-78
2023/05/06 10:30:38;;;;;;;;;;;;;;;18.05;78.43;101571.63;5052884;28;1221;-78
2023/05/06 10:33:05;;;;;;;;;;;;;;;18.15;78.08;101570.69;5050312;28;1913;-78
2023/05/06 10:35:37;;;;;;;;;;;;;;;18.28;77.54;101564.03;5077658;28;1352;-77
2023/05/06 10:38:03;;;;;;;;;;;;;;;18.38;76.42;101570.97;5064525;28;1345;-78
2023/05/06 10:40:29;;;;;;;;;;;;;;;18.37;74.99;101559.66;5062279;28;1136;-78
2023/05/06 10:43:21;;;;;;;;;;;;;;;18.43;74.48;101564.25;5055492;28;1070;-78
2023/05/06 10:45:58;;;;;;;;;;;;;;;18.54;76.04;101565.78;5026673;28;1333;-78
2023/05/06 10:48:23;;;;;;;;;;;;;;;18.65;75.13;101562.03;5061320;28;1321;-78
2023/05/06 10:50:48;;;;;;;;;;;;;;;18.69;75.50;101558.13;5065809;28;1067;-78
2023/05/06 10:53:13;;;;;;;;;;;;;;;18.71;70.23;101561.44;5058844;28;1983;-77
2023/05/06 10:55:39;;;;;;;;;;;;;;;18.73;74.46;101554.22;5078137;28;1100;-77
2023/05/06 10:58:10;;;;;;;;;;;;;;;18.78;74.45;101551.91;5062655;28;1228;-78
2023/05/06 11:00:36;;;;;;;;;;;;;;;18.84;71.26;101556.53;5054133;28;1212;-78
2023/05/06 11:03:04;;;;;;;;;;;;;;;18.89;72.79;101548.16;5059094;28;1325;-77
2023/05/06 11:05:30;;;;;;;;;;;;;;;18.87;72.55;101543.06;5063897;28;1400;-78
2023/05/06 11:08:09;;;;;;;;;;;;;;;19.00;71.72;101550.47;5065274;28;1203;-78
2023/05/06 11:10:35;;;;;;;;;;;;;;;19.07;72.77;101552.28;5058548;28;1151;-77
2023/05/06 11:13:19;;;;;;;;;;;;;;;19.09;72.00;101550.31;5059595;28;1971;-80
2023/05/06 11:15:45;;;;;;;;;;;;;;;19.09;71.51;101552.94;5059675;28;1172;-78
2023/05/06 11:18:26;;;;;;;;;;;;;;;19.14;72.30;101547.19;5068108;28;1247;-77
2023/05/06 11:21:03;;;;;;;;;;;;;;;19.24;71.70;101541.78;5068205;28;1230;-78
2023/05/06 11:23:41;;;;;;;;;;;;;;;19.31;70.81;101537.50;5062428;28;1283;-78
2023/05/06 11:26:07;;;;;;;;;;;;;;;19.33;68.77;101540.81;5067802;28;1399;-77
2023/05/06 11:28:32;;;;;;;;;;;;;;;19.41;68.03;101543.44;5057885;28;1697;-77
2023/05/06 11:30:58;;;;;;;;;;;;;;;19.48;68.28;101544.41;5063816;28;1045;-77
2023/05/06 11:33:26;;;;;;;;;;;;;;;19.55;67.86;101540.09;5060370;28;2218;-77
2023/05/06 11:35:52;;;;;;;;;;;;;;;19.67;67.35;101542.44;5063404;28;1123;-77
2023/05/06 11:38:17;;;;;;;;;;;;;;;19.74;66.44;101538.16;5060355;28;1362;-77
2023/05/06 11:40:42;;;;;;;;;;;;;;;19.65;65.91;101533.88;5062537;28;1517;-78
2023/05/06 11:43:14;;;;;;;;;;;;;;;19.58;64.35;101534.56;5057898;28;1175;-77
2023/05/06 11:45:47;;;;;;;;;;;;;;;19.55;64.23;101541.91;5065513;28;1493;-78
2023/05/06 11:48:16;;;;;;;;;;;;;;;19.54;65.62;101538.47;5068200;28;1215;-78
2023/05/06 11:50:47;;;;;;;;;;;;;;;19.53;62.12;101542.09;5069648;28;1191;-77
2023/05/06 11:53:17;;;;;;;;;;;;;;;19.51;65.21;101536.19;5060521;28;1991;-78
2023/05/06 11:55:43;;;;;;;;;;;;;;;19.58;64.95;101539.81;5058859;28;1380;-77
2023/05/06 11:58:13;;;;;;;;;;;;;;;19.69;64.69;101536.03;5064728;28;1150;-78
2023/05/06 12:00:44;;;;;;;;;;;;;;;19.76;64.45;101538.81;5081266;28;1254;-77
2023/05/06 12:03:13;;;;;;;;;;;;;;;19.83;63.67;101534.50;5062187;28;1211;-78
2023/05/06 12:05:40;;;;;;;;;;;;;;;19.91;61.53;101537.13;5067822;28;1263;-78
2023/05/06 12:08:05;;;;;;;;;;;;;;;20.00;63.51;101533.47;5062709;28;1195;-77
2023/05/06 12:10:31;;;;;;;;;;;;;;;19.99;61.44;101531.81;5066096;28;1402;-78
2023/05/06 12:12:56;;;;;;;;;;;;;;;19.95;62.70;101535.78;5062174;28;1898;-78
2023/05/06 12:15:21;;;;;;;;;;;;;;;19.97;63.49;101533.00;5060968;28;1294;-77
2023/05/06 12:17:46;;;;;;;;;;;;;;;20.01;62.77;101535.09;5065090;28;1483;-78
2023/05/06 12:20:12;;;;;;;;;;;;;;;20.12;62.46;101532.09;5069337;28;1239;-78
2023/05/06 12:22:37;;;;;;;;;;;;;;;20.27;61.87;101534.84;5063604;28;1316;-78
2023/05/06 12:25:13;;;;;;;;;;;;;;;20.38;63.28;101525.75;5066345;28;1376;-79
2023/05/06 12:27:38;;;;;;;;;;;;;;;20.41;61.53;101530.66;5055162;28;1137;-78
2023/05/06 12:30:04;;;;;;;;;;;;;;;20.48;61.64;101526.41;5059744;28;993;-79
2023/05/06 12:32:29;;;;;;;;;;;;;;;20.56;62.68;101518.44;5068149;28;1886;-78
2023/05/06 12:34:55;;;;;;;;;;;;;;;20.55;61.36;101524.69;5063104;28;1007;-77
2023/05/06 12:37:24;;;;;;;;;;;;;;;20.54;60.11;101530.97;5061299;28;1050;-77
2023/05/06 12:39:50;;;;;;;;;;;;;;;20.52;61.41;101538.22;5063418;28;1036;-78
2023/05/06 12:42:18;;;;;;;;;;;;;;;20.48;58.81;101534.28;5062805;28;1083;-77